createdAt,value
2022-11-18T00:01:20.318Z,13.63
2022-11-18T00:03:48.475Z,14.60
2022-11-18T00:06:18.931Z,12.60
2022-11-18T00:08:46.471Z,14.30
2022-11-18T00:11:37.792Z,14.85
2022-11-18T00:14:19.367Z,13.63
2022-11-18T00:16:57.733Z,15.40
2022-11-18T00:19:28.113Z,16.55
2022-11-18T00:21:56.200Z,20.08
2022-11-18T00:24:24.149Z,15.95
2022-11-18T00:26:52.091Z,13.60
2022-11-18T00:29:20.178Z,14.05
2022-11-18T00:31:48.196Z,15.25
2022-11-18T00:34:17.745Z,12.32
2022-11-18T00:36:45.787Z,14.90
2022-11-18T00:39:15.373Z,14.07
2022-11-18T00:42:02.437Z,14.98
2022-11-18T00:44:30.002Z,14.55
2022-11-18T00:46:57.563Z,14.95
2022-11-18T00:49:25.044Z,12.35
2022-11-18T00:51:52.651Z,14.43
2022-11-18T00:54:20.499Z,13.05
2022-11-18T00:56:47.896Z,12.27
2022-11-18T00:59:15.646Z,12.20
2022-11-18T01:01:43.596Z,14.68
2022-11-18T01:04:11.209Z,13.65
2022-11-18T01:06:38.645Z,15.63
2022-11-18T01:09:06.127Z,14.02
2022-11-18T01:11:51.847Z,12.93
2022-11-18T01:14:19.747Z,11.13
2022-11-18T01:16:51.403Z,13.13
2022-11-18T01:19:19.737Z,12.50
2022-11-18T01:21:47.257Z,14.77
2022-11-18T01:24:14.883Z,13.65
2022-11-18T01:26:42.746Z,13.15
2022-11-18T01:29:10.458Z,12.02
2022-11-18T01:31:50.178Z,11.80
2022-11-18T01:34:29.285Z,13.80
2022-11-18T01:36:58.226Z,13.52
2022-11-18T01:39:26.022Z,15.52
2022-11-18T01:41:53.817Z,17.83
2022-11-18T01:45:14.539Z,16.33
2022-11-18T01:47:49.898Z,12.85
2022-11-18T01:50:19.842Z,14.77
2022-11-18T01:52:51.656Z,13.63
2022-11-18T01:55:29.107Z,13.18
2022-11-18T01:58:06.360Z,12.27
2022-11-18T02:00:34.437Z,11.00
2022-11-18T02:03:02.765Z,14.90
2022-11-18T02:05:31.604Z,12.27
2022-11-18T02:08:01.386Z,10.70
2022-11-18T02:10:28.988Z,14.98
2022-11-18T02:12:57.253Z,13.88
2022-11-18T02:15:35.961Z,12.50
2022-11-18T02:18:15.310Z,11.90
2022-11-18T02:20:45.807Z,14.00
2022-11-18T02:23:47.368Z,12.52
2022-11-18T02:26:47.093Z,12.27
2022-11-18T02:29:38.023Z,14.35
2022-11-18T02:32:13.339Z,14.55
2022-11-18T02:34:53.381Z,15.88
2022-11-18T02:37:54.991Z,16.83
2022-11-18T02:40:40.107Z,14.02
2022-11-18T02:43:32.986Z,17.48
2022-11-18T02:46:06.582Z,16.90
2022-11-18T02:48:39.545Z,13.98
2022-11-18T02:51:09.974Z,15.15
2022-11-18T02:53:40.313Z,13.25
2022-11-18T02:56:09.628Z,12.48
2022-11-18T02:58:37.065Z,14.88
2022-11-18T03:01:04.530Z,16.92
2022-11-18T03:03:34.544Z,14.57
2022-11-18T03:06:15.276Z,16.58
2022-11-18T03:09:18.414Z,15.43
2022-11-18T03:12:02.586Z,15.73
2022-11-18T03:14:37.216Z,16.20
2022-11-18T03:17:12.618Z,14.60
2022-11-18T03:19:51.968Z,17.50
2022-11-18T03:22:39.478Z,14.23
2022-11-18T03:25:10.492Z,14.93
2022-11-18T03:28:12.998Z,17.00
2022-11-18T03:30:51.001Z,13.73
2022-11-18T03:33:24.824Z,14.65
2022-11-18T03:35:53.930Z,14.68
2022-11-18T03:38:29.361Z,14.88
2022-11-18T03:41:01.535Z,14.32
2022-11-18T03:43:34.718Z,14.52
2022-11-18T03:46:11.019Z,13.35
2022-11-18T03:48:59.425Z,15.95
2022-11-18T03:51:33.991Z,16.77
2022-11-18T03:54:11.987Z,14.48
2022-11-18T03:56:45.678Z,13.10
2022-11-18T03:59:20.086Z,17.17
2022-11-18T04:01:51.774Z,15.98
2022-11-18T04:04:20.083Z,11.48
2022-11-18T04:07:22.821Z,13.60
2022-11-18T04:10:01.730Z,15.70
2022-11-18T04:12:33.351Z,13.65
2022-11-18T04:15:01.383Z,15.63
2022-11-18T04:17:29.312Z,11.65
2022-11-18T04:19:56.878Z,12.48
2022-11-18T04:22:24.278Z,15.63
2022-11-18T04:24:51.636Z,14.80
2022-11-18T04:27:19.114Z,15.90
2022-11-18T04:29:46.512Z,17.75
2022-11-18T04:32:13.983Z,17.75
2022-11-18T04:34:41.454Z,14.35
2022-11-18T04:37:08.873Z,12.48
2022-11-18T04:39:36.406Z,15.30
2022-11-18T04:42:03.949Z,13.50
2022-11-18T04:44:33.239Z,17.13
2022-11-18T04:47:02.922Z,13.90
2022-11-18T04:49:30.666Z,17.30
2022-11-18T04:51:58.647Z,15.63
2022-11-18T04:54:26.805Z,15.02
2022-11-18T04:56:55.284Z,14.32
2022-11-18T04:59:25.218Z,17.42
2022-11-18T05:01:53.539Z,11.63
2022-11-18T05:04:27.355Z,10.77
2022-11-18T05:06:54.837Z,12.98
2022-11-18T05:09:27.244Z,9.02
2022-11-18T05:12:16.567Z,10.88
2022-11-18T05:14:49.347Z,11.02
2022-11-18T05:17:18.528Z,9.82
2022-11-18T05:19:45.954Z,11.98
2022-11-18T05:22:15.585Z,10.23
2022-11-18T05:24:43.181Z,12.00
2022-11-18T05:27:11.260Z,10.27
2022-11-18T05:29:38.816Z,10.30
2022-11-18T05:32:06.352Z,12.57
2022-11-18T05:34:33.711Z,12.65
2022-11-18T05:37:01.041Z,12.77
2022-11-18T05:39:28.516Z,11.65
2022-11-18T05:42:14.423Z,14.02
2022-11-18T05:44:41.911Z,25.83
2022-11-18T05:47:09.340Z,12.85
2022-11-18T05:49:36.879Z,13.40
2022-11-18T05:52:04.865Z,11.90
2022-11-18T05:54:32.733Z,11.07
2022-11-18T05:57:00.154Z,10.23
2022-11-18T05:59:27.581Z,10.60
2022-11-18T06:02:03.903Z,13.73
2022-11-18T06:04:31.403Z,10.27
2022-11-18T06:07:15.523Z,13.40
2022-11-18T06:09:46.675Z,11.48
2022-11-18T06:12:18.907Z,11.52
2022-11-18T06:15:02.702Z,13.70
2022-11-18T06:17:43.699Z,12.90
2022-11-18T06:22:43.490Z,13.57
2022-11-18T06:25:14.159Z,14.65
2022-11-18T06:27:42.535Z,12.98
2022-11-18T06:30:10.776Z,13.18
2022-11-18T06:32:38.532Z,14.95
2022-11-18T06:35:06.666Z,13.93
2022-11-18T06:37:34.602Z,13.95
2022-11-18T06:40:03.504Z,12.30
2022-11-18T06:42:49.574Z,12.27
2022-11-18T06:45:17.051Z,12.32
2022-11-18T06:47:44.611Z,11.48
2022-11-18T06:50:12.119Z,12.32
2022-11-18T06:52:39.678Z,11.80
2022-11-18T06:55:08.446Z,11.95
2022-11-18T06:57:35.928Z,11.45
2022-11-18T07:00:04.462Z,12.50
2022-11-18T07:02:32.017Z,11.65
2022-11-18T07:04:59.479Z,12.80
2022-11-18T07:07:26.999Z,14.25
2022-11-18T07:09:54.612Z,12.00
2022-11-18T07:12:22.189Z,9.57
2022-11-18T07:14:49.637Z,13.25
2022-11-18T07:17:17.105Z,9.63
2022-11-18T07:19:44.705Z,13.15
2022-11-18T07:22:12.189Z,12.23
2022-11-18T07:24:41.075Z,13.88
2022-11-18T07:27:09.025Z,10.63
2022-11-18T07:29:36.554Z,12.98
2022-11-18T07:32:04.279Z,11.50
2022-11-18T07:34:31.741Z,22.08
2022-11-18T07:36:59.165Z,10.77
2022-11-18T07:39:26.534Z,11.05
2022-11-18T07:41:53.931Z,10.77
2022-11-18T07:44:21.302Z,12.43
2022-11-18T07:46:48.633Z,14.65
2022-11-18T07:49:16.321Z,17.33
2022-11-18T07:51:43.995Z,14.93
2022-11-18T07:54:13.948Z,11.27
2022-11-18T07:56:41.509Z,12.57
2022-11-18T07:59:09.214Z,10.60
2022-11-18T08:01:37.007Z,12.38
2022-11-18T08:04:06.914Z,10.10
2022-11-18T08:06:35.565Z,12.68
2022-11-18T08:09:04.252Z,12.77
2022-11-18T08:11:31.945Z,8.63
2022-11-18T08:13:59.493Z,10.85
2022-11-18T08:16:27.182Z,9.80
2022-11-18T08:18:55.018Z,12.57
2022-11-18T08:21:23.528Z,15.52
2022-11-18T08:23:56.822Z,12.30
2022-11-18T08:26:25.220Z,10.77
2022-11-18T08:28:53.277Z,10.75
2022-11-18T08:31:26.478Z,13.02
2022-11-18T08:34:00.846Z,12.52
2022-11-18T08:36:30.709Z,12.68
2022-11-18T08:38:59.885Z,15.57
2022-11-18T08:41:39.754Z,13.05
2022-11-18T08:44:09.663Z,15.07
2022-11-18T08:46:37.057Z,12.15
2022-11-18T08:49:04.720Z,11.52
2022-11-18T08:51:32.176Z,13.93
2022-11-18T08:53:59.741Z,13.98
2022-11-18T08:56:27.267Z,10.38
2022-11-18T08:58:54.704Z,13.07
2022-11-18T09:01:22.455Z,10.95
2022-11-18T09:03:50.446Z,11.90
2022-11-18T09:06:20.372Z,13.68
2022-11-18T09:08:47.913Z,11.07
2022-11-18T09:11:17.907Z,17.77
2022-11-18T09:15:06.364Z,18.80
2022-11-18T09:16:34.864Z,15.18
2022-11-18T09:21:50.038Z,17.15
2022-11-18T09:24:18.024Z,17.50
2022-11-18T09:26:45.830Z,13.27
2022-11-18T09:29:13.283Z,16.70
2022-11-18T09:31:40.766Z,19.15
2022-11-18T09:34:10.562Z,24.63
2022-11-18T09:36:38.046Z,15.75
2022-11-18T09:39:05.585Z,18.98
2022-11-18T09:41:33.098Z,17.60
2022-11-18T09:44:12.845Z,28.83
2022-11-18T09:47:17.639Z,18.40
2022-11-18T09:49:46.359Z,14.85
2022-11-18T09:52:21.998Z,12.30
2022-11-18T09:54:50.419Z,12.93
2022-11-18T09:57:21.076Z,14.32
2022-11-18T09:59:48.597Z,11.02
2022-11-18T10:02:21.822Z,12.35
2022-11-18T10:04:49.241Z,11.15
2022-11-18T10:07:22.239Z,14.73
2022-11-18T10:09:54.702Z,10.95
2022-11-18T10:12:51.381Z,11.55
2022-11-18T10:15:22.080Z,13.48
2022-11-18T10:18:01.198Z,14.00
2022-11-18T10:21:00.425Z,16.90
2022-11-18T10:23:44.964Z,14.15
2022-11-18T10:26:13.159Z,12.88
2022-11-18T10:28:40.663Z,13.95
2022-11-18T10:31:10.927Z,10.77
2022-11-18T10:33:39.258Z,11.40
2022-11-18T10:36:19.290Z,11.75
2022-11-18T10:38:50.223Z,13.63
2022-11-18T10:41:20.765Z,12.10
2022-11-18T10:43:52.049Z,12.45
2022-11-18T10:46:29.274Z,11.93
2022-11-18T10:49:08.751Z,13.20
2022-11-18T10:51:44.977Z,12.35
2022-11-18T10:54:20.088Z,13.13
2022-11-18T10:56:58.083Z,14.35
2022-11-18T10:59:36.282Z,13.32
2022-11-18T11:02:12.674Z,16.48
2022-11-18T11:04:41.572Z,11.13
2022-11-18T11:07:25.534Z,11.07
2022-11-18T11:10:05.212Z,11.82
2022-11-18T11:12:35.036Z,12.40
2022-11-18T11:15:18.717Z,12.40
2022-11-18T11:18:16.153Z,13.35
2022-11-18T11:20:43.595Z,11.63
2022-11-18T11:23:12.911Z,12.80
2022-11-18T11:28:45.706Z,11.55
2022-11-18T11:31:27.868Z,11.75
2022-11-18T11:34:05.481Z,12.63
2022-11-18T11:37:14.636Z,14.18
2022-11-18T11:40:00.232Z,16.42
2022-11-18T11:42:48.799Z,16.70
2022-11-18T11:45:30.240Z,17.65
2022-11-18T11:48:34.118Z,18.67
2022-11-18T11:51:18.313Z,16.63
2022-11-18T11:54:05.369Z,14.43
2022-11-18T11:56:42.285Z,15.80
2022-11-18T11:59:18.891Z,16.42
2022-11-18T12:01:49.125Z,15.32
2022-11-18T12:04:25.225Z,14.07
2022-11-18T12:06:54.974Z,13.98
2022-11-18T12:09:34.291Z,14.25
2022-11-18T12:12:38.391Z,14.98
2022-11-18T12:15:15.765Z,16.00
2022-11-18T12:18:18.668Z,16.42
2022-11-18T12:20:48.980Z,17.88
2022-11-18T12:23:21.097Z,18.00
2022-11-18T12:25:48.500Z,13.23
2022-11-18T12:28:34.734Z,14.90
2022-11-18T12:31:23.151Z,12.48
2022-11-18T12:34:04.348Z,14.32
2022-11-18T12:36:37.119Z,13.95
2022-11-18T12:39:25.889Z,14.48
2022-11-18T12:42:16.917Z,14.38
2022-11-18T12:47:14.801Z,14.80
2022-11-18T12:49:45.125Z,13.98
2022-11-18T12:52:30.418Z,15.75
2022-11-18T12:55:03.683Z,15.13
2022-11-18T12:57:34.971Z,13.88
2022-11-18T13:00:23.575Z,18.73
2022-11-18T13:02:59.033Z,14.45
2022-11-18T13:05:29.198Z,18.58
2022-11-18T13:08:16.197Z,16.08
2022-11-18T13:10:43.618Z,18.95
2022-11-18T13:13:30.793Z,16.63
2022-11-18T13:16:39.956Z,19.35
2022-11-18T13:19:07.612Z,15.48
2022-11-18T13:21:53.738Z,13.70
2022-11-18T13:24:22.767Z,18.70
2022-11-18T13:26:59.581Z,15.52
2022-11-18T13:29:54.116Z,13.57
2022-11-18T13:32:29.027Z,16.40
2022-11-18T13:35:15.753Z,16.80
2022-11-18T13:37:53.237Z,18.48
2022-11-18T13:40:23.301Z,24.02
2022-11-18T13:42:50.870Z,24.05
2022-11-18T13:45:19.156Z,25.63
2022-11-18T13:47:49.014Z,23.50
2022-11-18T13:50:20.956Z,20.52
2022-11-18T13:53:02.142Z,18.30
2022-11-18T13:55:34.574Z,15.30
2022-11-18T13:58:30.792Z,16.70
2022-11-18T14:01:05.853Z,17.33
2022-11-18T14:03:48.514Z,18.67
2022-11-18T14:06:28.017Z,16.95
2022-11-18T14:09:22.790Z,18.02
2022-11-18T14:15:20.677Z,20.33
2022-11-18T14:17:59.249Z,18.50
2022-11-18T14:20:28.978Z,16.67
2022-11-18T14:23:00.319Z,18.08
2022-11-18T14:25:34.396Z,17.38
2022-11-18T14:28:20.650Z,18.25
2022-11-18T14:31:18.749Z,16.13
2022-11-18T14:34:23.691Z,16.50
2022-11-18T14:36:52.071Z,17.10
2022-11-18T14:39:31.628Z,16.52
2022-11-18T14:41:59.859Z,16.48
2022-11-18T14:44:28.446Z,18.00
2022-11-18T14:46:59.484Z,19.42
2022-11-18T14:49:28.365Z,16.15
2022-11-18T14:51:55.881Z,16.98
2022-11-18T14:54:26.881Z,19.55
2022-11-18T14:57:01.630Z,20.02
2022-11-18T14:59:29.524Z,19.90
2022-11-18T15:01:57.309Z,21.83
2022-11-18T15:04:25.341Z,23.08
2022-11-18T15:06:53.127Z,19.38
2022-11-18T15:09:20.836Z,17.30
2022-11-18T15:11:48.143Z,16.38
2022-11-18T15:14:15.844Z,21.23
2022-11-18T15:16:43.418Z,18.67
2022-11-18T15:19:15.520Z,17.80
2022-11-18T15:21:43.869Z,17.80
2022-11-18T15:24:11.290Z,18.73
2022-11-18T15:26:44.532Z,19.00
2022-11-18T15:29:22.984Z,19.05
2022-11-18T15:31:51.446Z,20.50
2022-11-18T15:34:21.655Z,18.00
2022-11-18T15:36:49.845Z,19.15
2022-11-18T15:39:17.361Z,19.23
2022-11-18T15:41:44.849Z,19.98
2022-11-18T15:44:12.398Z,18.88
2022-11-18T15:46:40.457Z,21.45
2022-11-18T15:49:13.220Z,23.60
2022-11-18T15:51:40.953Z,21.10
2022-11-18T15:54:08.533Z,18.38
2022-11-18T15:56:36.781Z,17.35
2022-11-18T15:59:12.716Z,18.15
2022-11-18T16:01:49.247Z,20.02
2022-11-18T16:04:19.189Z,17.02
2022-11-18T16:06:46.853Z,18.80
2022-11-18T16:09:16.128Z,21.85
2022-11-18T16:12:02.184Z,19.17
2022-11-18T16:14:29.703Z,18.65
2022-11-18T16:16:57.755Z,20.10
2022-11-18T16:19:26.956Z,19.95
2022-11-18T16:21:57.047Z,19.70
2022-11-18T16:24:27.073Z,19.45
2022-11-18T16:26:54.926Z,20.00
2022-11-18T16:29:23.572Z,17.98
2022-11-18T16:31:53.009Z,23.88
2022-11-18T16:34:26.062Z,18.15
2022-11-18T16:36:59.786Z,16.42
2022-11-18T16:39:28.504Z,19.92
2022-11-18T16:42:06.447Z,19.55
2022-11-18T16:44:35.230Z,20.05
2022-11-18T16:47:05.310Z,20.50
2022-11-18T16:49:35.142Z,22.35
2022-11-18T16:52:02.640Z,21.33
2022-11-18T16:54:32.046Z,22.58
2022-11-18T16:57:00.141Z,20.45
2022-11-18T16:59:30.622Z,20.77
2022-11-18T17:02:00.378Z,21.73
2022-11-18T17:04:31.086Z,19.60
2022-11-18T17:07:00.195Z,22.02
2022-11-18T17:09:28.196Z,19.70
2022-11-18T17:11:56.781Z,19.15
2022-11-18T17:14:25.061Z,18.90
2022-11-18T17:16:53.349Z,20.45
2022-11-18T17:19:22.958Z,19.48
2022-11-18T17:21:51.789Z,24.52
2022-11-18T17:24:22.240Z,23.02
2022-11-18T17:26:50.775Z,23.55
2022-11-18T17:29:18.951Z,29.77
2022-11-18T17:31:46.679Z,21.15
2022-11-18T17:34:15.079Z,22.92
2022-11-18T17:36:42.713Z,26.25
2022-11-18T17:39:11.839Z,22.92
2022-11-18T17:41:59.848Z,24.20
2022-11-18T17:44:27.680Z,21.45
2022-11-18T17:46:55.097Z,22.83
2022-11-18T17:49:22.603Z,25.98
2022-11-18T17:51:52.022Z,22.42
2022-11-18T17:54:21.115Z,22.63
2022-11-18T17:56:56.691Z,22.25
2022-11-18T17:59:25.592Z,18.92
2022-11-18T18:01:58.970Z,19.75
2022-11-18T18:04:26.953Z,21.95
2022-11-18T18:06:55.187Z,20.35
2022-11-18T18:09:26.895Z,20.05
2022-11-18T18:11:59.105Z,20.48
2022-11-18T18:14:26.504Z,21.52
2022-11-18T18:16:54.397Z,23.58
2022-11-18T18:19:23.487Z,23.27
2022-11-18T18:21:51.171Z,20.40
2022-11-18T18:24:21.013Z,25.52
2022-11-18T18:26:49.221Z,23.98
2022-11-18T18:29:16.646Z,22.98
2022-11-18T18:31:43.987Z,20.92
2022-11-18T18:34:11.703Z,23.98
2022-11-18T18:36:39.072Z,22.27
2022-11-18T18:39:06.529Z,22.50
2022-11-18T18:41:33.995Z,20.40
2022-11-18T18:44:01.793Z,22.40
2022-11-18T18:46:30.656Z,22.33
2022-11-18T18:49:05.872Z,22.55
2022-11-18T18:51:40.086Z,21.02
2022-11-18T18:54:09.792Z,21.15
2022-11-18T18:56:38.753Z,20.85
2022-11-18T18:59:06.928Z,22.70
2022-11-18T19:01:34.697Z,20.88
2022-11-18T19:04:05.160Z,22.23
2022-11-18T19:06:58.165Z,22.05
2022-11-18T19:09:22.837Z,19.73
2022-11-18T19:12:09.905Z,20.20
2022-11-18T19:14:37.747Z,18.98
2022-11-18T19:17:10.694Z,20.30
2022-11-18T19:20:00.786Z,21.08
2022-11-18T19:22:33.028Z,20.33
2022-11-18T19:25:01.367Z,17.80
2022-11-18T19:27:29.651Z,22.65
2022-11-18T19:29:57.243Z,18.00
2022-11-18T19:32:24.718Z,19.27
2022-11-18T19:34:52.180Z,20.80
2022-11-18T19:37:19.719Z,20.75
2022-11-18T19:39:47.211Z,19.23
2022-11-18T19:42:14.716Z,20.70
2022-11-18T19:44:42.102Z,19.05
2022-11-18T19:47:09.466Z,19.27
2022-11-18T19:49:36.879Z,20.40
2022-11-18T19:52:04.330Z,25.52
2022-11-18T19:54:31.764Z,23.00
2022-11-18T19:56:59.931Z,20.35
2022-11-18T19:59:27.490Z,24.30
2022-11-18T20:01:54.930Z,17.65
2022-11-18T20:04:22.762Z,16.88
2022-11-18T20:06:50.344Z,20.38
2022-11-18T20:09:18.606Z,18.88
2022-11-18T20:11:46.129Z,19.38
2022-11-18T20:14:14.106Z,18.90
2022-11-18T20:16:41.926Z,18.98
2022-11-18T20:19:13.725Z,23.38
2022-11-18T20:21:43.504Z,20.42
2022-11-18T20:24:16.051Z,19.23
2022-11-18T20:26:44.470Z,18.98
2022-11-18T20:29:12.060Z,21.35
2022-11-18T20:31:39.600Z,20.75
2022-11-18T20:34:07.227Z,21.70
2022-11-18T20:36:36.396Z,20.60
2022-11-18T20:39:07.496Z,30.52
2022-11-18T20:41:36.535Z,21.63
2022-11-18T20:44:04.520Z,19.85
2022-11-18T20:46:33.434Z,17.95
2022-11-18T20:49:01.703Z,21.73
2022-11-18T20:51:29.543Z,22.50
2022-11-18T20:53:58.620Z,20.80
2022-11-18T20:56:27.893Z,19.52
2022-11-18T20:58:57.255Z,20.30
2022-11-18T21:01:27.127Z,21.77
2022-11-18T21:03:59.379Z,20.90
2022-11-18T21:06:29.438Z,17.60
2022-11-18T21:09:02.637Z,18.20
2022-11-18T21:11:30.572Z,20.48
2022-11-18T21:14:22.904Z,18.25
2022-11-18T21:16:53.928Z,20.13
2022-11-18T21:19:22.479Z,20.60
2022-11-18T21:21:53.557Z,19.63
2022-11-18T21:24:32.483Z,18.95
2022-11-18T21:27:01.312Z,19.77
2022-11-18T21:29:30.896Z,19.05
2022-11-18T21:32:02.661Z,18.60
2022-11-18T21:34:30.446Z,21.30
2022-11-18T21:36:58.357Z,21.30
2022-11-18T21:39:26.542Z,20.95
2022-11-18T21:41:56.736Z,21.23
2022-11-18T21:46:54.309Z,19.42
2022-11-18T21:49:23.277Z,20.42
2022-11-18T21:51:51.169Z,20.25
2022-11-18T21:54:18.711Z,18.00
2022-11-18T21:56:46.209Z,20.50
2022-11-18T21:59:14.121Z,22.42
2022-11-18T22:01:41.562Z,23.45
2022-11-18T22:04:28.914Z,21.42
2022-11-18T22:06:56.390Z,22.77
2022-11-18T22:09:23.776Z,19.75
2022-11-18T22:11:51.148Z,22.70
2022-11-18T22:14:18.473Z,20.42
2022-11-18T22:16:45.912Z,20.58
2022-11-18T22:19:13.296Z,21.52
2022-11-18T22:21:40.700Z,21.15
2022-11-18T22:24:08.661Z,22.10
2022-11-18T22:26:36.213Z,21.50
2022-11-18T22:29:03.811Z,26.25
2022-11-18T22:31:31.242Z,18.80
2022-11-18T22:33:58.634Z,18.17
2022-11-18T22:36:27.625Z,20.38
2022-11-18T22:38:55.588Z,21.63
2022-11-18T22:41:43.761Z,25.52
2022-11-18T22:44:12.404Z,24.27
2022-11-18T22:46:41.197Z,24.67
2022-11-18T22:49:10.308Z,22.13
2022-11-18T22:51:38.677Z,22.15
2022-11-18T22:56:55.073Z,23.25
2022-11-18T22:59:22.807Z,20.27
2022-11-18T23:01:53.494Z,23.90
2022-11-18T23:04:20.924Z,22.25
2022-11-18T23:06:49.597Z,23.00
2022-11-18T23:09:17.473Z,20.38
2022-11-18T23:12:03.621Z,22.65
2022-11-18T23:14:31.596Z,23.85
2022-11-18T23:16:59.504Z,22.33
2022-11-18T23:19:26.918Z,26.95
2022-11-18T23:21:54.342Z,22.67
2022-11-18T23:24:22.022Z,22.05
2022-11-18T23:26:49.580Z,19.67
2022-11-18T23:29:18.743Z,20.27
2022-11-18T23:31:46.624Z,19.55
2022-11-18T23:34:15.866Z,21.10
2022-11-18T23:36:43.646Z,17.35
2022-11-18T23:39:11.746Z,19.15
2022-11-18T23:41:39.629Z,17.95
2022-11-18T23:44:07.422Z,19.83
2022-11-18T23:46:34.973Z,21.90
2022-11-18T23:49:02.622Z,20.67
2022-11-18T23:51:30.194Z,18.58
2022-11-18T23:53:58.131Z,20.10
2022-11-18T23:56:27.554Z,21.52
2022-11-18T23:58:56.955Z,19.45
